TRA5841 EHRD-LFKB
Flight info
| Callsign | TRA5841 |
|---|---|
| Flight time | 1h 39m |
| Altitude | 39000 |
| Route | WOODY N872 NIK M624 REMBA DCT SUTAL DCT GTQ DCT DEVDI DCT ODINA DCT OLETI M858 LIGUR |
| Aircraft | B738/M-SDE2E3FGHIJ1RWXYZ/LB1 |
Departure
| Time | 2026-05-08 16:25 |
|---|---|
| Airport | Rotterdam The Hague Airport (EHRD) |
Arrival
| Time | 2026-05-08 18:05 |
|---|---|
| Airport | Bastia-Poretta International airport (LFKB) |
| Time | Latitude | Longitude | Altitude | Speed | Heading |
|---|---|---|---|---|---|
| 2026-05-08 15:25 | 51.95013 | 4.43508 | -7 ft | 0 kts | 327° |
| 2026-05-08 16:21 | 51.95020 | 4.43501 | -7 ft | 3 kts | 327° |
| 2026-05-08 16:21 | 51.95048 | 4.43490 | -7 ft | 6 kts | 19° |
| 2026-05-08 16:22 | 51.95079 | 4.43548 | -7 ft | 8 kts | 56° |
| 2026-05-08 16:22 | 51.95131 | 4.43553 | -7 ft | 9 kts | 329° |
| 2026-05-08 16:22 | 51.95191 | 4.43489 | -6 ft | 11 kts | 327° |
| 2026-05-08 16:22 | 51.95238 | 4.43395 | -6 ft | 12 kts | 256° |
| 2026-05-08 16:23 | 51.95195 | 4.43285 | -6 ft | 11 kts | 236° |
| 2026-05-08 16:23 | 51.95153 | 4.43180 | -6 ft | 11 kts | 239° |
| 2026-05-08 16:23 | 51.95121 | 4.43068 | -6 ft | 11 kts | 246° |
| 2026-05-08 16:23 | 51.95116 | 4.42954 | -6 ft | 10 kts | 298° |
| 2026-05-08 16:24 | 51.95171 | 4.42882 | -6 ft | 10 kts | 326° |
| 2026-05-08 16:24 | 51.95217 | 4.42861 | -6 ft | 6 kts | 26° |
| 2026-05-08 16:24 | 51.95245 | 4.42917 | -6 ft | 7 kts | 57° |
| 2026-05-08 16:24 | 51.95316 | 4.43097 | -6 ft | 44 kts | 57° |
| 2026-05-08 16:25 | 51.95615 | 4.43842 | -6 ft | 111 kts | 57° |
| 2026-05-08 16:25 | 51.96142 | 4.45147 | 39 ft | 160 kts | 56° |
| 2026-05-08 16:25 | 51.96758 | 4.46685 | 627 ft | 165 kts | 58° |
| 2026-05-08 16:25 | 51.97349 | 4.48306 | 1358 ft | 168 kts | 59° |
| 2026-05-08 16:26 | 51.97962 | 4.50110 | 1663 ft | 198 kts | 60° |
| 2026-05-08 16:26 | 51.98658 | 4.52200 | 1890 ft | 222 kts | 61° |
| 2026-05-08 16:26 | 51.99409 | 4.54533 | 2150 ft | 244 kts | 63° |
| 2026-05-08 16:26 | 52.00116 | 4.57073 | 2731 ft | 253 kts | 75° |
| 2026-05-08 16:27 | 52.00094 | 4.59914 | 3542 ft | 256 kts | 107° |
| 2026-05-08 16:27 | 51.99183 | 4.62398 | 4303 ft | 261 kts | 134° |
| 2026-05-08 16:27 | 51.97699 | 4.64124 | 5038 ft | 266 kts | 151° |
| 2026-05-08 16:27 | 51.96039 | 4.65502 | 5797 ft | 268 kts | 154° |
| 2026-05-08 16:28 | 51.94312 | 4.66555 | 6532 ft | 272 kts | 172° |
| 2026-05-08 16:28 | 51.92438 | 4.66231 | 7235 ft | 274 kts | 202° |
| 2026-05-08 16:28 | 51.90861 | 4.64521 | 7958 ft | 275 kts | 228° |
| 2026-05-08 16:28 | 51.89710 | 4.62035 | 8688 ft | 277 kts | 236° |
| 2026-05-08 16:29 | 51.88643 | 4.59469 | 9394 ft | 279 kts | 236° |
| 2026-05-08 16:29 | 51.87516 | 4.56889 | 10055 ft | 283 kts | 227° |
| 2026-05-08 16:29 | 51.85856 | 4.55118 | 10418 ft | 298 kts | 200° |
| 2026-05-08 16:29 | 51.83787 | 4.54165 | 10591 ft | 319 kts | 195° |
| 2026-05-08 16:30 | 51.81565 | 4.53269 | 10747 ft | 338 kts | 194° |
| 2026-05-08 16:30 | 51.79228 | 4.52347 | 11132 ft | 349 kts | 194° |
| 2026-05-08 16:30 | 51.76849 | 4.51402 | 11762 ft | 353 kts | 194° |
| 2026-05-08 16:30 | 51.74485 | 4.50453 | 12429 ft | 355 kts | 194° |
| 2026-05-08 16:31 | 51.72072 | 4.49474 | 13107 ft | 358 kts | 194° |
| 2026-05-08 16:31 | 51.69637 | 4.48481 | 13798 ft | 362 kts | 194° |
| 2026-05-08 16:31 | 51.67187 | 4.47478 | 14421 ft | 365 kts | 194° |
| 2026-05-08 16:31 | 51.64717 | 4.46463 | 15069 ft | 368 kts | 194° |
| 2026-05-08 16:32 | 51.62223 | 4.45438 | 15726 ft | 370 kts | 194° |
| 2026-05-08 16:32 | 51.59715 | 4.44408 | 16375 ft | 373 kts | 194° |
| 2026-05-08 16:32 | 51.57220 | 4.43385 | 17008 ft | 377 kts | 194° |
| 2026-05-08 16:32 | 51.54664 | 4.42339 | 17642 ft | 380 kts | 194° |
| 2026-05-08 16:33 | 51.52086 | 4.41284 | 18282 ft | 383 kts | 194° |
| 2026-05-08 16:33 | 51.49492 | 4.40224 | 18817 ft | 386 kts | 194° |
| 2026-05-08 16:33 | 51.46875 | 4.39157 | 19333 ft | 390 kts | 194° |
| 2026-05-08 16:33 | 51.44230 | 4.38080 | 19859 ft | 393 kts | 195° |
| 2026-05-08 16:34 | 51.41574 | 4.36998 | 20362 ft | 396 kts | 195° |
| 2026-05-08 16:34 | 51.38941 | 4.35639 | 20846 ft | 399 kts | 204° |
| 2026-05-08 16:34 | 51.36431 | 4.33709 | 21359 ft | 402 kts | 207° |
| 2026-05-08 16:34 | 51.33909 | 4.31680 | 21857 ft | 405 kts | 207° |
| 2026-05-08 16:35 | 51.31356 | 4.29698 | 22337 ft | 409 kts | 206° |
| 2026-05-08 16:35 | 51.28815 | 4.27756 | 22802 ft | 412 kts | 206° |
| 2026-05-08 16:35 | 51.26212 | 4.25773 | 23272 ft | 415 kts | 206° |
| 2026-05-08 16:35 | 51.23590 | 4.23780 | 23715 ft | 418 kts | 206° |
| 2026-05-08 16:36 | 51.20932 | 4.21836 | 24098 ft | 421 kts | 201° |
| 2026-05-08 16:36 | 51.18062 | 4.21000 | 24422 ft | 428 kts | 180° |
| 2026-05-08 16:36 | 51.15115 | 4.21750 | 24820 ft | 432 kts | 163° |
| 2026-05-08 16:36 | 51.12394 | 4.23806 | 25189 ft | 437 kts | 145° |
| 2026-05-08 16:37 | 51.10016 | 4.26880 | 25550 ft | 440 kts | 140° |
| 2026-05-08 16:37 | 51.07693 | 4.30101 | 25863 ft | 444 kts | 139° |
| 2026-05-08 16:37 | 51.05356 | 4.33355 | 26186 ft | 447 kts | 139° |
| 2026-05-08 16:37 | 51.03031 | 4.36558 | 26524 ft | 449 kts | 140° |
| 2026-05-08 16:38 | 51.00640 | 4.39810 | 26868 ft | 452 kts | 140° |
| 2026-05-08 16:38 | 50.98226 | 4.43060 | 27196 ft | 454 kts | 140° |
| 2026-05-08 16:38 | 50.95794 | 4.46319 | 27510 ft | 457 kts | 140° |
| 2026-05-08 16:38 | 50.93390 | 4.49535 | 27815 ft | 459 kts | 140° |
| 2026-05-08 16:39 | 50.90934 | 4.52816 | 28125 ft | 462 kts | 140° |
| 2026-05-08 16:39 | 50.88539 | 4.56226 | 28419 ft | 464 kts | 136° |
| 2026-05-08 16:39 | 50.86234 | 4.59830 | 28699 ft | 467 kts | 135° |
| 2026-05-08 16:39 | 50.83956 | 4.63509 | 28998 ft | 469 kts | 134° |
| 2026-05-08 16:40 | 50.81662 | 4.67212 | 29284 ft | 471 kts | 135° |
| 2026-05-08 16:40 | 50.79345 | 4.70902 | 29675 ft | 471 kts | 135° |
| 2026-05-08 16:40 | 50.77065 | 4.74491 | 30181 ft | 467 kts | 136° |
| 2026-05-08 16:40 | 50.74759 | 4.78096 | 30534 ft | 466 kts | 136° |
| 2026-05-08 16:41 | 50.72437 | 4.81710 | 30789 ft | 467 kts | 136° |
| 2026-05-08 16:41 | 50.70117 | 4.85314 | 31031 ft | 469 kts | 136° |
| 2026-05-08 16:41 | 50.67795 | 4.88920 | 31333 ft | 468 kts | 136° |
| 2026-05-08 16:42 | 50.62980 | 4.95813 | 31943 ft | 467 kts | 141° |
| 2026-05-08 16:42 | 50.60449 | 4.99022 | 32204 ft | 467 kts | 142° |
| 2026-05-08 16:42 | 50.57917 | 5.02161 | 32475 ft | 467 kts | 142° |
| 2026-05-08 16:42 | 50.55367 | 5.05313 | 32770 ft | 467 kts | 142° |
| 2026-05-08 16:43 | 50.52813 | 5.08488 | 33048 ft | 467 kts | 142° |
| 2026-05-08 16:43 | 50.50264 | 5.11679 | 33282 ft | 468 kts | 142° |
| 2026-05-08 16:43 | 50.47724 | 5.14874 | 33660 ft | 465 kts | 142° |
| 2026-05-08 16:43 | 50.45243 | 5.18007 | 34006 ft | 463 kts | 142° |
| 2026-05-08 16:44 | 50.42723 | 5.21189 | 34201 ft | 465 kts | 142° |
| 2026-05-08 16:44 | 50.40194 | 5.24379 | 34355 ft | 466 kts | 142° |
| 2026-05-08 16:44 | 50.37654 | 5.27578 | 34558 ft | 466 kts | 142° |
| 2026-05-08 16:44 | 50.35127 | 5.30757 | 34805 ft | 465 kts | 143° |
| 2026-05-08 16:45 | 50.32629 | 5.33894 | 35000 ft | 466 kts | 143° |
| 2026-05-08 16:45 | 50.30094 | 5.37072 | 35179 ft | 466 kts | 143° |
| 2026-05-08 16:45 | 50.27559 | 5.40245 | 35333 ft | 467 kts | 143° |
| 2026-05-08 16:45 | 50.25011 | 5.43431 | 35486 ft | 468 kts | 143° |
| 2026-05-08 16:46 | 50.22459 | 5.46615 | 35696 ft | 468 kts | 143° |
| 2026-05-08 16:46 | 50.19944 | 5.49751 | 35905 ft | 468 kts | 143° |
| 2026-05-08 16:46 | 50.17396 | 5.52923 | 36111 ft | 467 kts | 143° |
| 2026-05-08 16:46 | 50.14859 | 5.56077 | 36357 ft | 466 kts | 143° |
| 2026-05-08 16:47 | 50.12313 | 5.59237 | 36538 ft | 466 kts | 143° |
| 2026-05-08 16:47 | 50.09801 | 5.62351 | 36671 ft | 467 kts | 143° |
| 2026-05-08 16:47 | 50.07250 | 5.65509 | 36830 ft | 468 kts | 143° |
| 2026-05-08 16:47 | 50.04704 | 5.68656 | 37020 ft | 467 kts | 143° |
| 2026-05-08 16:48 | 50.02148 | 5.71810 | 37076 ft | 469 kts | 143° |
| 2026-05-08 16:48 | 49.97014 | 5.78134 | 37076 ft | 470 kts | 143° |
| 2026-05-08 16:49 | 49.91934 | 5.84376 | 37076 ft | 467 kts | 143° |
| 2026-05-08 16:49 | 49.86839 | 5.90618 | 37065 ft | 464 kts | 144° |
| 2026-05-08 16:50 | 49.81769 | 5.96811 | 37064 ft | 463 kts | 144° |
| 2026-05-08 16:50 | 49.76741 | 6.02936 | 37057 ft | 461 kts | 144° |
| 2026-05-08 16:51 | 49.71689 | 6.09074 | 37047 ft | 461 kts | 144° |
| 2026-05-08 16:51 | 49.66630 | 6.15205 | 37050 ft | 462 kts | 144° |
| 2026-05-08 16:52 | 49.61545 | 6.21349 | 37050 ft | 464 kts | 144° |
| 2026-05-08 16:52 | 49.56478 | 6.27457 | 37037 ft | 466 kts | 144° |
| 2026-05-08 16:53 | 49.48789 | 6.36695 | 37065 ft | 468 kts | 144° |
| 2026-05-08 16:53 | 49.43241 | 6.41781 | 37063 ft | 464 kts | 159° |
| 2026-05-08 16:54 | 49.37337 | 6.45670 | 37055 ft | 465 kts | 159° |
| 2026-05-08 16:54 | 49.31368 | 6.49608 | 37056 ft | 466 kts | 159° |
| 2026-05-08 16:55 | 49.25457 | 6.53578 | 37059 ft | 466 kts | 159° |
| 2026-05-08 16:55 | 49.19520 | 6.57582 | 37045 ft | 466 kts | 159° |
| 2026-05-08 16:56 | 49.13586 | 6.61574 | 37045 ft | 465 kts | 159° |
| 2026-05-08 16:56 | 49.07660 | 6.65546 | 37043 ft | 464 kts | 159° |
| 2026-05-08 16:57 | 49.01775 | 6.69481 | 37042 ft | 463 kts | 159° |
| 2026-05-08 16:57 | 48.95887 | 6.73426 | 37040 ft | 462 kts | 159° |
| 2026-05-08 16:58 | 48.90009 | 6.77444 | 37039 ft | 461 kts | 159° |
| 2026-05-08 16:58 | 48.84181 | 6.81436 | 37025 ft | 461 kts | 159° |
| 2026-05-08 16:59 | 48.78331 | 6.85424 | 37038 ft | 461 kts | 159° |
| 2026-05-08 16:59 | 48.72464 | 6.89406 | 37041 ft | 462 kts | 159° |
| 2026-05-08 17:00 | 48.66611 | 6.93365 | 37032 ft | 463 kts | 159° |
| 2026-05-08 17:00 | 48.60703 | 6.97353 | 37036 ft | 464 kts | 159° |
| 2026-05-08 17:01 | 48.54829 | 7.01308 | 37031 ft | 465 kts | 159° |
| 2026-05-08 17:01 | 48.48896 | 7.05293 | 37022 ft | 466 kts | 159° |
| 2026-05-08 17:02 | 48.42968 | 7.09264 | 37012 ft | 466 kts | 159° |
| 2026-05-08 17:02 | 48.37039 | 7.13226 | 37012 ft | 465 kts | 159° |
| 2026-05-08 17:03 | 48.31155 | 7.17147 | 37011 ft | 465 kts | 159° |
| 2026-05-08 17:03 | 48.25228 | 7.21087 | 37002 ft | 464 kts | 159° |
| 2026-05-08 17:04 | 48.20300 | 7.24355 | 36974 ft | 464 kts | 160° |
| 2026-05-08 17:04 | 48.13433 | 7.28899 | 36994 ft | 464 kts | 160° |
| 2026-05-08 17:05 | 48.08513 | 7.32146 | 37001 ft | 464 kts | 160° |
| 2026-05-08 17:05 | 48.02588 | 7.36046 | 36994 ft | 464 kts | 160° |
| 2026-05-08 17:06 | 47.96657 | 7.39941 | 36976 ft | 465 kts | 160° |
| 2026-05-08 17:06 | 47.90771 | 7.43797 | 37017 ft | 465 kts | 160° |
| 2026-05-08 17:07 | 47.84820 | 7.47686 | 37005 ft | 466 kts | 160° |
| 2026-05-08 17:07 | 47.78893 | 7.51551 | 36995 ft | 468 kts | 160° |
| 2026-05-08 17:08 | 47.72925 | 7.55442 | 36989 ft | 469 kts | 159° |
| 2026-05-08 17:08 | 47.66999 | 7.59561 | 37001 ft | 470 kts | 158° |
| 2026-05-08 17:09 | 47.61095 | 7.63773 | 36997 ft | 471 kts | 158° |
| 2026-05-08 17:09 | 47.55177 | 7.67967 | 36998 ft | 471 kts | 158° |
| 2026-05-08 17:10 | 47.49287 | 7.72102 | 36990 ft | 470 kts | 158° |
| 2026-05-08 17:10 | 47.43368 | 7.76236 | 36998 ft | 470 kts | 158° |
| 2026-05-08 17:11 | 47.37446 | 7.80361 | 36992 ft | 469 kts | 159° |
| 2026-05-08 17:11 | 47.31549 | 7.84459 | 36981 ft | 468 kts | 159° |
| 2026-05-08 17:12 | 47.25687 | 7.88524 | 36992 ft | 468 kts | 159° |
| 2026-05-08 17:12 | 47.19781 | 7.92608 | 36996 ft | 469 kts | 159° |
| 2026-05-08 17:13 | 47.13895 | 7.96669 | 36990 ft | 470 kts | 159° |
| 2026-05-08 17:13 | 47.07953 | 8.00722 | 37006 ft | 470 kts | 160° |
| 2026-05-08 17:14 | 47.02010 | 8.04756 | 37001 ft | 472 kts | 159° |
| 2026-05-08 17:14 | 46.96048 | 8.08889 | 37001 ft | 473 kts | 159° |
| 2026-05-08 17:15 | 46.90115 | 8.12972 | 36995 ft | 474 kts | 159° |
| 2026-05-08 17:15 | 46.84132 | 8.17057 | 36991 ft | 474 kts | 159° |
| 2026-05-08 17:16 | 46.78132 | 8.21135 | 36984 ft | 475 kts | 159° |
| 2026-05-08 17:16 | 46.72155 | 8.25187 | 36998 ft | 476 kts | 159° |
| 2026-05-08 17:17 | 46.66124 | 8.29266 | 36991 ft | 477 kts | 159° |
| 2026-05-08 17:17 | 46.60089 | 8.33339 | 37008 ft | 478 kts | 159° |
| 2026-05-08 17:18 | 46.54073 | 8.37389 | 37013 ft | 478 kts | 159° |
| 2026-05-08 17:18 | 46.48020 | 8.41454 | 37026 ft | 478 kts | 159° |
| 2026-05-08 17:19 | 46.42019 | 8.45475 | 37040 ft | 476 kts | 159° |
| 2026-05-08 17:19 | 46.35990 | 8.49505 | 37039 ft | 472 kts | 159° |
| 2026-05-08 17:20 | 46.30093 | 8.53438 | 37053 ft | 469 kts | 159° |
| 2026-05-08 17:20 | 46.24148 | 8.57390 | 37021 ft | 469 kts | 159° |
| 2026-05-08 17:21 | 46.18229 | 8.61319 | 37043 ft | 468 kts | 159° |
| 2026-05-08 17:21 | 46.12335 | 8.65192 | 37036 ft | 466 kts | 162° |
| 2026-05-08 17:22 | 46.06109 | 8.67359 | 37050 ft | 456 kts | 179° |
| 2026-05-08 17:22 | 45.99812 | 8.68255 | 37045 ft | 459 kts | 179° |
| 2026-05-08 17:23 | 45.93418 | 8.69165 | 37062 ft | 462 kts | 179° |
| 2026-05-08 17:23 | 45.86985 | 8.70131 | 37044 ft | 466 kts | 178° |
| 2026-05-08 17:24 | 45.80550 | 8.71125 | 37048 ft | 467 kts | 179° |
| 2026-05-08 17:24 | 45.74074 | 8.72129 | 37042 ft | 467 kts | 179° |
| 2026-05-08 17:25 | 45.67648 | 8.73122 | 37043 ft | 465 kts | 179° |
| 2026-05-08 17:25 | 45.61212 | 8.74112 | 37039 ft | 463 kts | 179° |
| 2026-05-08 17:26 | 45.54850 | 8.75087 | 37045 ft | 461 kts | 179° |
| 2026-05-08 17:26 | 45.48482 | 8.76060 | 37046 ft | 459 kts | 179° |
| 2026-05-08 17:27 | 45.42137 | 8.77028 | 37001 ft | 457 kts | 179° |
| 2026-05-08 17:27 | 45.35853 | 8.77984 | 37015 ft | 455 kts | 179° |
| 2026-05-08 17:28 | 45.29555 | 8.78940 | 37025 ft | 454 kts | 179° |
| 2026-05-08 17:28 | 45.23260 | 8.79892 | 37011 ft | 454 kts | 179° |
| 2026-05-08 17:29 | 45.16970 | 8.80843 | 37046 ft | 455 kts | 179° |
| 2026-05-08 17:29 | 45.10685 | 8.81791 | 37053 ft | 456 kts | 179° |
| 2026-05-08 17:30 | 45.04390 | 8.82738 | 37050 ft | 457 kts | 179° |
| 2026-05-08 17:30 | 44.98044 | 8.83691 | 37044 ft | 458 kts | 179° |
| 2026-05-08 17:31 | 44.91691 | 8.84643 | 37045 ft | 459 kts | 179° |
| 2026-05-08 17:31 | 44.85316 | 8.85596 | 37046 ft | 460 kts | 179° |
| 2026-05-08 17:32 | 44.78972 | 8.86543 | 37044 ft | 460 kts | 179° |
| 2026-05-08 17:32 | 44.72557 | 8.87496 | 36476 ft | 467 kts | 179° |
| 2026-05-08 17:33 | 44.69320 | 8.87977 | 35919 ft | 464 kts | 180° |
| 2026-05-08 17:33 | 44.66107 | 8.88456 | 35284 ft | 464 kts | 180° |
| 2026-05-08 17:33 | 44.62892 | 8.88933 | 34627 ft | 465 kts | 180° |
| 2026-05-08 17:33 | 44.59718 | 8.89404 | 33998 ft | 465 kts | 181° |
| 2026-05-08 17:34 | 44.56494 | 8.89880 | 33211 ft | 466 kts | 181° |
| 2026-05-08 17:34 | 44.53265 | 8.90357 | 32631 ft | 463 kts | 181° |
| 2026-05-08 17:34 | 44.50073 | 8.90832 | 32142 ft | 458 kts | 181° |
| 2026-05-08 17:34 | 44.46910 | 8.91301 | 31673 ft | 454 kts | 180° |
| 2026-05-08 17:35 | 44.43780 | 8.91763 | 31200 ft | 451 kts | 180° |
| 2026-05-08 17:35 | 44.40671 | 8.92221 | 30729 ft | 448 kts | 180° |
| 2026-05-08 17:35 | 44.37610 | 8.92670 | 30271 ft | 445 kts | 180° |
| 2026-05-08 17:35 | 44.34533 | 8.93121 | 29753 ft | 442 kts | 180° |
| 2026-05-08 17:36 | 44.31477 | 8.93569 | 29232 ft | 437 kts | 180° |
| 2026-05-08 17:36 | 44.28454 | 8.94012 | 28768 ft | 435 kts | 179° |
| 2026-05-08 17:36 | 44.25447 | 8.94450 | 28263 ft | 434 kts | 179° |
| 2026-05-08 17:36 | 44.22498 | 8.94881 | 27820 ft | 429 kts | 179° |
| 2026-05-08 17:37 | 44.19538 | 8.95314 | 27346 ft | 425 kts | 179° |
| 2026-05-08 17:37 | 44.16612 | 8.95741 | 26879 ft | 421 kts | 178° |
| 2026-05-08 17:37 | 44.13700 | 8.96165 | 26418 ft | 417 kts | 178° |
| 2026-05-08 17:37 | 44.10825 | 8.96584 | 25963 ft | 414 kts | 178° |
| 2026-05-08 17:38 | 44.07966 | 8.96999 | 25516 ft | 411 kts | 178° |
| 2026-05-08 17:38 | 44.05166 | 8.97405 | 25062 ft | 408 kts | 178° |
| 2026-05-08 17:38 | 44.02355 | 8.97813 | 24621 ft | 405 kts | 177° |
| 2026-05-08 17:38 | 43.99556 | 8.98219 | 24176 ft | 402 kts | 177° |
| 2026-05-08 17:39 | 43.96778 | 8.98621 | 23717 ft | 400 kts | 176° |
| 2026-05-08 17:39 | 43.94008 | 8.99021 | 23206 ft | 398 kts | 176° |
| 2026-05-08 17:39 | 43.91262 | 8.99419 | 22722 ft | 395 kts | 176° |
| 2026-05-08 17:39 | 43.88540 | 8.99813 | 22252 ft | 392 kts | 176° |
| 2026-05-08 17:40 | 43.85837 | 9.00203 | 21813 ft | 388 kts | 176° |
| 2026-05-08 17:40 | 43.83193 | 9.00585 | 21391 ft | 384 kts | 176° |
| 2026-05-08 17:40 | 43.80535 | 9.00884 | 20954 ft | 380 kts | 182° |
| 2026-05-08 17:40 | 43.77910 | 9.00688 | 20537 ft | 375 kts | 187° |
| 2026-05-08 17:41 | 43.75317 | 9.00350 | 20104 ft | 372 kts | 188° |
| 2026-05-08 17:41 | 43.72737 | 9.00000 | 19696 ft | 370 kts | 188° |
| 2026-05-08 17:41 | 43.70184 | 8.99667 | 19289 ft | 367 kts | 187° |
| 2026-05-08 17:41 | 43.67678 | 8.99356 | 18881 ft | 365 kts | 187° |
| 2026-05-08 17:42 | 43.65145 | 8.99052 | 18467 ft | 364 kts | 187° |
| 2026-05-08 17:42 | 43.62625 | 8.98756 | 18022 ft | 362 kts | 187° |
| 2026-05-08 17:42 | 43.60118 | 8.98464 | 17570 ft | 359 kts | 187° |
| 2026-05-08 17:42 | 43.57635 | 8.98176 | 17142 ft | 357 kts | 186° |
| 2026-05-08 17:43 | 43.55191 | 8.97893 | 16726 ft | 354 kts | 186° |
| 2026-05-08 17:43 | 43.52751 | 8.97601 | 16327 ft | 351 kts | 186° |
| 2026-05-08 17:43 | 43.50319 | 8.97293 | 15913 ft | 349 kts | 186° |
| 2026-05-08 17:43 | 43.47910 | 8.96985 | 15529 ft | 347 kts | 186° |
| 2026-05-08 17:44 | 43.45515 | 8.96679 | 15126 ft | 344 kts | 186° |
| 2026-05-08 17:44 | 43.43130 | 8.96376 | 14744 ft | 343 kts | 186° |
| 2026-05-08 17:44 | 43.40762 | 8.96077 | 14350 ft | 341 kts | 186° |
| 2026-05-08 17:44 | 43.38406 | 8.95781 | 14007 ft | 338 kts | 185° |
| 2026-05-08 17:45 | 43.36078 | 8.95513 | 13802 ft | 334 kts | 185° |
| 2026-05-08 17:45 | 43.33757 | 8.95256 | 13560 ft | 335 kts | 185° |
| 2026-05-08 17:45 | 43.31440 | 8.95001 | 13342 ft | 339 kts | 185° |
| 2026-05-08 17:45 | 43.29071 | 8.94738 | 13112 ft | 341 kts | 185° |
| 2026-05-08 17:46 | 43.26716 | 8.94475 | 12895 ft | 339 kts | 185° |
| 2026-05-08 17:46 | 43.24371 | 8.94224 | 12670 ft | 336 kts | 182° |
| 2026-05-08 17:46 | 43.22073 | 8.94675 | 12457 ft | 336 kts | 160° |
| 2026-05-08 17:46 | 43.20001 | 8.96124 | 12286 ft | 333 kts | 149° |
| 2026-05-08 17:47 | 43.18025 | 8.97780 | 12072 ft | 333 kts | 149° |
| 2026-05-08 17:47 | 43.16059 | 8.99458 | 11863 ft | 333 kts | 148° |
| 2026-05-08 17:47 | 43.14086 | 9.01129 | 11656 ft | 333 kts | 148° |
| 2026-05-08 17:47 | 43.12778 | 9.02227 | 11519 ft | 332 kts | 149° |
| 2026-05-08 17:48 | 43.10157 | 9.04404 | 11239 ft | 332 kts | 149° |
| 2026-05-08 17:48 | 43.08179 | 9.06035 | 11036 ft | 332 kts | 149° |
| 2026-05-08 17:48 | 43.06211 | 9.07655 | 10825 ft | 327 kts | 149° |
| 2026-05-08 17:48 | 43.04286 | 9.09237 | 10614 ft | 319 kts | 148° |
| 2026-05-08 17:49 | 43.02398 | 9.10786 | 10415 ft | 312 kts | 148° |
| 2026-05-08 17:49 | 43.00553 | 9.12299 | 10222 ft | 305 kts | 148° |
| 2026-05-08 17:49 | 42.98748 | 9.13779 | 10042 ft | 299 kts | 148° |
| 2026-05-08 17:49 | 42.96998 | 9.15214 | 9989 ft | 287 kts | 148° |
| 2026-05-08 17:50 | 42.95878 | 9.16132 | 9880 ft | 282 kts | 148° |
| 2026-05-08 17:50 | 42.93648 | 9.17958 | 9516 ft | 278 kts | 148° |
| 2026-05-08 17:50 | 42.92002 | 9.19305 | 9319 ft | 274 kts | 148° |
| 2026-05-08 17:50 | 42.90902 | 9.20204 | 9196 ft | 272 kts | 148° |
| 2026-05-08 17:51 | 42.89302 | 9.21512 | 9032 ft | 271 kts | 148° |
| 2026-05-08 17:51 | 42.87690 | 9.22829 | 8859 ft | 270 kts | 148° |
| 2026-05-08 17:51 | 42.85551 | 9.24576 | 8620 ft | 269 kts | 148° |
| 2026-05-08 17:51 | 42.84485 | 9.25446 | 8499 ft | 270 kts | 148° |
| 2026-05-08 17:52 | 42.82864 | 9.26769 | 8335 ft | 272 kts | 149° |
| 2026-05-08 17:52 | 42.81230 | 9.28101 | 8167 ft | 274 kts | 149° |
| 2026-05-08 17:52 | 42.77931 | 9.30789 | 7816 ft | 278 kts | 149° |
| 2026-05-08 17:53 | 42.76276 | 9.32137 | 7634 ft | 276 kts | 149° |
| 2026-05-08 17:53 | 42.74640 | 9.33468 | 7454 ft | 271 kts | 149° |
| 2026-05-08 17:53 | 42.73035 | 9.34773 | 7286 ft | 267 kts | 149° |
| 2026-05-08 17:53 | 42.71446 | 9.36064 | 7122 ft | 266 kts | 149° |
| 2026-05-08 17:54 | 42.69875 | 9.37340 | 6968 ft | 266 kts | 149° |
| 2026-05-08 17:54 | 42.68288 | 9.38629 | 6812 ft | 266 kts | 149° |
| 2026-05-08 17:54 | 42.66701 | 9.39917 | 6652 ft | 266 kts | 149° |
| 2026-05-08 17:54 | 42.65114 | 9.41204 | 6468 ft | 266 kts | 149° |
| 2026-05-08 17:55 | 42.63524 | 9.42492 | 6318 ft | 265 kts | 149° |
| 2026-05-08 17:55 | 42.61939 | 9.43776 | 6135 ft | 265 kts | 149° |
| 2026-05-08 17:55 | 42.60348 | 9.45063 | 5968 ft | 265 kts | 149° |
| 2026-05-08 17:55 | 42.58786 | 9.46327 | 5807 ft | 264 kts | 149° |
| 2026-05-08 17:56 | 42.57205 | 9.47603 | 5633 ft | 264 kts | 149° |
| 2026-05-08 17:56 | 42.55620 | 9.48850 | 5471 ft | 263 kts | 150° |
| 2026-05-08 17:56 | 42.54031 | 9.50086 | 5314 ft | 264 kts | 149° |
| 2026-05-08 17:56 | 42.52427 | 9.51333 | 5233 ft | 264 kts | 149° |
| 2026-05-08 17:57 | 42.50862 | 9.52550 | 5199 ft | 259 kts | 149° |
| 2026-05-08 17:57 | 42.49305 | 9.53762 | 4893 ft | 260 kts | 149° |
| 2026-05-08 17:57 | 42.47746 | 9.54976 | 4678 ft | 259 kts | 149° |
| 2026-05-08 17:57 | 42.46193 | 9.56184 | 4496 ft | 254 kts | 149° |
| 2026-05-08 17:58 | 42.44670 | 9.57367 | 4315 ft | 249 kts | 149° |
| 2026-05-08 17:58 | 42.43179 | 9.58517 | 4159 ft | 244 kts | 149° |
| 2026-05-08 17:58 | 42.41717 | 9.59636 | 4004 ft | 239 kts | 149° |
| 2026-05-08 17:58 | 42.40282 | 9.60731 | 3855 ft | 234 kts | 149° |
| 2026-05-08 17:59 | 42.38898 | 9.61789 | 3711 ft | 228 kts | 149° |
| 2026-05-08 17:59 | 42.37441 | 9.62546 | 3526 ft | 224 kts | 179° |
| 2026-05-08 17:59 | 42.36004 | 9.61914 | 3455 ft | 220 kts | 219° |
| 2026-05-08 17:59 | 42.35117 | 9.60249 | 3316 ft | 223 kts | 255° |
| 2026-05-08 18:00 | 42.35128 | 9.58185 | 3178 ft | 222 kts | 292° |
| 2026-05-08 18:00 | 42.37285 | 9.55855 | 2918 ft | 196 kts | 345° |
| 2026-05-08 18:00 | 42.38568 | 9.55366 | 2795 ft | 186 kts | 345° |
| 2026-05-08 18:01 | 42.39822 | 9.54867 | 2703 ft | 188 kts | 344° |
| 2026-05-08 18:01 | 42.41072 | 9.54348 | 2563 ft | 188 kts | 344° |
| 2026-05-08 18:01 | 42.42310 | 9.53829 | 2436 ft | 186 kts | 343° |
| 2026-05-08 18:01 | 42.43528 | 9.53315 | 2195 ft | 183 kts | 343° |
| 2026-05-08 18:02 | 42.44714 | 9.52815 | 1968 ft | 173 kts | 343° |
| 2026-05-08 18:02 | 42.45824 | 9.52347 | 1722 ft | 163 kts | 343° |
| 2026-05-08 18:02 | 42.46882 | 9.51902 | 1555 ft | 156 kts | 343° |
| 2026-05-08 18:02 | 42.47903 | 9.51471 | 1328 ft | 153 kts | 344° |
| 2026-05-08 18:03 | 42.48922 | 9.51043 | 1126 ft | 152 kts | 344° |
| 2026-05-08 18:03 | 42.49930 | 9.50627 | 949 ft | 151 kts | 344° |
| 2026-05-08 18:03 | 42.50931 | 9.50219 | 775 ft | 150 kts | 344° |
| 2026-05-08 18:03 | 42.51933 | 9.49786 | 549 ft | 152 kts | 342° |
| 2026-05-08 18:04 | 42.52927 | 9.49349 | 359 ft | 150 kts | 345° |
| 2026-05-08 18:04 | 42.53925 | 9.48942 | 140 ft | 149 kts | 343° |
| 2026-05-08 18:04 | 42.54885 | 9.48534 | 35 ft | 138 kts | 343° |
| 2026-05-08 18:04 | 42.55607 | 9.48230 | 30 ft | 77 kts | 342° |
| 2026-05-08 18:05 | 42.55915 | 9.48102 | 25 ft | 15 kts | 342° |
| 2026-05-08 18:05 | 42.55929 | 9.48095 | 24 ft | 1 kts | 338° |
| 2026-05-08 18:05 | 42.55950 | 9.48079 | 24 ft | 7 kts | 320° |
| 2026-05-08 18:05 | 42.55958 | 9.47982 | 27 ft | 13 kts | 256° |
| 2026-05-08 18:06 | 42.55919 | 9.47876 | 24 ft | 13 kts | 215° |
| 2026-05-08 18:06 | 42.55835 | 9.47879 | 28 ft | 12 kts | 162° |
| 2026-05-08 18:06 | 42.55753 | 9.47914 | 27 ft | 12 kts | 162° |
| 2026-05-08 18:06 | 42.55664 | 9.47952 | 29 ft | 15 kts | 163° |
| 2026-05-08 18:07 | 42.55567 | 9.47992 | 32 ft | 14 kts | 163° |
| 2026-05-08 18:07 | 42.55472 | 9.48031 | 34 ft | 15 kts | 162° |
| 2026-05-08 18:07 | 42.55353 | 9.48081 | 33 ft | 21 kts | 163° |
| 2026-05-08 18:07 | 42.55212 | 9.48141 | 34 ft | 21 kts | 162° |
| 2026-05-08 18:08 | 42.55073 | 9.48200 | 34 ft | 21 kts | 162° |
| 2026-05-08 18:08 | 42.54953 | 9.48236 | 34 ft | 15 kts | 176° |
| 2026-05-08 18:08 | 42.54899 | 9.48214 | 34 ft | 8 kts | 238° |
| 2026-05-08 18:08 | 42.54885 | 9.48158 | 34 ft | 1 kts | 253° |
| 2026-05-08 18:09 | 42.54884 | 9.48152 | 34 ft | 1 kts | 253° |
| 2026-05-08 18:09 | 42.54883 | 9.48152 | 34 ft | 0 kts | 253° |